Time;durP1;ratioP1;P1;durP2;ratioP2;P2;SDS_P1;SDS_P2;PMS_P1;PMS_P2;Temp;Humidity;BMP_temperature;BMP_pressure;BME280_temperature;BME280_humidity;BME280_pressure;Samples;Min_cycle;Max_cycle;Signal;HPM_P1;HPM_P2
2024/01/01 00:01:49;;;;;;;4.70;0.70;;;7.40;99.90;;;;;;4183095;28;20544;-95
2024/01/01 00:03:50;;;;;;;4.67;1.60;;;7.40;99.90;;;;;;4182452;28;20179;-93
2024/01/01 00:05:53;;;;;;;3.27;1.13;;;7.40;99.90;;;;;;4182873;28;20270;-94
2024/01/01 00:08:32;;;;;;;3.40;0.50;;;7.30;99.90;;;;;;4199313;28;20248;-96
2024/01/01 00:10:54;;;;;;;9.70;0.53;;;7.40;99.90;;;;;;4182820;28;20636;-94
2024/01/01 00:13:15;;;;;;;1.85;0.90;;;7.40;99.90;;;;;;4198318;28;20183;-95
2024/01/01 00:15:16;;;;;;;1.27;0.70;;;7.40;99.90;;;;;;4182150;28;20222;-94
2024/01/01 00:17:17;;;;;;;6.23;1.10;;;7.40;99.90;;;;;;4181358;28;20682;-95
2024/01/01 00:19:21;;;;;;;4.13;0.57;;;7.40;99.90;;;;;;4181814;28;20183;-94
2024/01/01 00:21:22;;;;;;;6.43;1.42;;;7.40;99.90;;;;;;4169846;28;20850;-95
2024/01/01 00:23:31;;;;;;;3.27;0.30;;;7.40;99.90;;;;;;4165587;28;20263;-95
2024/01/01 00:25:35;;;;;;;3.17;0.67;;;7.40;99.90;;;;;;4165418;28;20237;-94
2024/01/01 00:27:39;;;;;;;1.43;0.60;;;7.50;99.90;;;;;;4182287;28;20644;-96
2024/01/01 00:29:40;;;;;;;2.60;1.33;;;7.40;99.90;;;;;;4182136;28;20171;-95
2024/01/01 00:31:44;;;;;;;12.30;1.47;;;7.40;99.90;;;;;;4165633;28;20579;-92
2024/01/01 00:33:51;;;;;;;6.33;1.43;;;7.40;99.90;;;;;;4182301;28;20935;-95
2024/01/01 00:35:59;;;;;;;4.67;0.53;;;7.50;99.90;;;;;;4185347;28;20203;-94
2024/01/01 00:38:00;;;;;;;2.25;0.57;;;7.50;99.90;;;;;;4172269;28;20399;-95
2024/01/01 00:40:09;;;;;;;3.20;0.93;;;7.50;99.90;;;;;;4181195;28;20183;-95
2024/01/01 00:42:10;;;;;;;0.20;0.10;;;7.50;99.90;;;;;;4165464;28;20629;-93
2024/01/01 00:44:11;;;;;;;9.33;1.27;;;7.50;99.90;;;;;;4181213;28;20251;-93
2024/01/01 00:46:12;;;;;;;9.77;0.83;;;7.50;99.90;;;;;;4162699;28;20208;-93
2024/01/01 00:48:13;;;;;;;2.20;0.50;;;7.50;99.90;;;;;;4163596;28;20172;-95
2024/01/01 00:50:14;;;;;;;1.77;0.45;;;7.60;99.90;;;;;;4164371;28;20175;-94
2024/01/01 00:52:20;;;;;;;1.67;0.30;;;7.70;99.90;;;;;;4163872;28;20177;-95
2024/01/01 00:54:21;;;;;;;2.80;0.85;;;7.70;99.90;;;;;;4181655;28;20207;-94
2024/01/01 00:56:21;;;;;;;6.78;0.93;;;7.80;99.90;;;;;;4164958;28;20553;-94
2024/01/01 00:58:26;;;;;;;8.63;1.52;;;7.90;99.90;;;;;;4166256;28;20439;-95
2024/01/01 01:00:38;;;;;;;3.30;0.88;;;7.90;99.90;;;;;;4169768;28;20211;-95
2024/01/01 01:03:09;;;;;;;6.72;0.73;;;7.80;99.90;;;;;;4201262;28;20166;-95
2024/01/01 01:05:19;;;;;;;1.40;0.20;;;7.70;99.90;;;;;;4186390;28;20178;-95
2024/01/01 01:07:20;;;;;;;4.45;1.08;;;7.70;99.90;;;;;;4190985;28;20225;-94
2024/01/01 01:09:21;;;;;;;3.28;0.30;;;7.60;99.90;;;;;;4170212;28;20172;-94
2024/01/01 01:11:25;;;;;;;5.17;1.33;;;7.50;99.90;;;;;;4167983;28;20219;-94
2024/01/01 01:13:58;;;;;;;4.47;1.07;;;7.50;99.90;;;;;;4187574;28;20219;-94
2024/01/01 01:16:05;;;;;;;5.90;1.00;;;7.40;99.90;;;;;;4171666;28;20236;-94
2024/01/01 01:18:08;;;;;;;0.53;0.30;;;7.50;99.90;;;;;;4171133;28;20180;-94
2024/01/01 01:20:10;;;;;;;1.65;0.20;;;7.50;99.90;;;;;;4168833;28;20192;-94
2024/01/01 01:22:32;;;;;;;3.83;0.47;;;7.50;99.90;;;;;;4174035;28;20254;-94
2024/01/01 01:24:41;;;;;;;2.20;0.80;;;7.50;99.90;;;;;;4185928;28;20171;-93
2024/01/01 01:26:57;;;;;;;11.40;1.00;;;7.60;99.90;;;;;;4167994;28;20245;-95
2024/01/01 01:29:28;;;;;;;17.70;1.80;;;7.50;99.90;;;;;;4170535;28;20157;-94
2024/01/01 01:32:04;;;;;;;0.60;0.30;;;7.50;99.90;;;;;;4186994;28;20172;-94
2024/01/01 01:34:34;;;;;;;7.73;1.00;;;7.50;99.90;;;;;;4187336;28;20211;-96
2024/01/01 01:36:43;;;;;;;14.07;1.73;;;7.50;99.90;;;;;;4184827;28;20188;-94
2024/01/01 01:38:47;;;;;;;5.83;0.50;;;7.60;99.90;;;;;;4169955;28;20164;-94
2024/01/01 01:41:46;;;;;;;4.00;0.73;;;7.60;99.90;;;;;;4204391;28;20151;-95
2024/01/01 01:44:36;;;;;;;6.80;0.90;;;7.60;99.90;;;;;;4182371;28;20653;-96
2024/01/01 01:46:48;;;;;;;1.60;0.83;;;7.60;99.90;;;;;;4174976;28;20179;-96
2024/01/01 01:49:05;;;;;;;;;;;;;;;;;;;;;
2024/01/01 01:51:14;;;;;;;9.33;0.50;;;7.60;99.90;;;;;;4188069;28;20148;-94
2024/01/01 01:53:23;;;;;;;5.32;0.95;;;7.60;99.90;;;;;;4188662;28;20673;-95
2024/01/01 01:55:57;;;;;;;1.30;0.30;;;7.60;99.90;;;;;;4171438;28;20207;-95
2024/01/01 01:58:04;;;;;;;1.40;0.73;;;7.50;99.90;;;;;;4185407;28;20184;-95
2024/01/01 02:00:12;;;;;;;2.47;0.60;;;7.50;99.90;;;;;;4172854;28;20246;-94
2024/01/01 02:02:17;;;;;;;2.57;0.50;;;7.50;99.90;;;;;;4186579;28;20171;-95
2024/01/01 02:04:20;;;;;;;6.53;0.73;;;7.50;99.90;;;;;;4173392;28;20542;-95
2024/01/01 02:07:01;;;;;;;2.63;0.63;;;7.50;99.90;;;;;;4171308;28;20216;-94
2024/01/01 02:09:04;;;;;;;4.63;0.63;;;7.60;99.90;;;;;;4172931;28;20176;-94
2024/01/01 02:11:05;;;;;;;1.20;0.50;;;7.40;99.90;;;;;;4171308;28;20164;-94
2024/01/01 02:13:21;;;;;;;9.95;0.75;;;7.40;99.90;;;;;;4172526;28;20174;-94
2024/01/01 02:15:22;;;;;;;3.80;1.23;;;7.50;99.90;;;;;;4176634;28;20265;-95
2024/01/01 02:17:25;;;;;;;2.75;0.82;;;7.40;99.90;;;;;;4174413;28;20189;-93
2024/01/01 02:19:31;;;;;;;6.97;0.90;;;7.60;99.90;;;;;;4172832;28;20232;-94
2024/01/01 02:21:34;;;;;;;11.20;0.97;;;7.70;99.90;;;;;;4190816;28;20182;-94
2024/01/01 02:24:08;;;;;;;0.70;0.13;;;7.70;99.90;;;;;;4174421;28;20184;-96
2024/01/01 02:26:17;;;;;;;5.37;0.87;;;7.70;99.90;;;;;;4173966;28;20790;-94
2024/01/01 02:28:19;;;;;;;5.05;1.40;;;7.60;99.90;;;;;;4189201;28;20663;-95
2024/01/01 02:30:20;;;;;;;3.25;1.13;;;7.50;99.90;;;;;;4170180;28;20179;-94
2024/01/01 02:32:21;;;;;;;2.65;0.63;;;7.40;99.90;;;;;;4173006;28;20255;-93
2024/01/01 02:34:35;;;;;;;5.00;1.47;;;7.50;99.90;;;;;;4187245;28;20207;-95
2024/01/01 02:36:39;;;;;;;0.20;0.00;;;7.40;99.90;;;;;;4189707;28;20551;-96
2024/01/01 02:38:40;;;;;;;0.07;0.03;;;7.30;99.90;;;;;;4173369;28;20178;-93
2024/01/01 02:41:01;;;;;;;4.30;0.70;;;7.30;99.90;;;;;;4173514;28;20235;-93
2024/01/01 02:43:15;;;;;;;6.05;0.88;;;7.20;99.90;;;;;;4175852;28;20279;-93
2024/01/01 02:45:22;;;;;;;2.57;0.30;;;7.20;99.90;;;;;;4191992;28;20266;-94
2024/01/01 02:47:26;;;;;;;3.23;0.60;;;7.30;99.90;;;;;;4190040;28;20205;-94
2024/01/01 02:49:27;;;;;;;5.87;0.63;;;7.30;99.90;;;;;;4173755;28;20152;-94
2024/01/01 02:51:39;;;;;;;5.93;0.60;;;7.30;99.90;;;;;;4190804;28;20176;-95
2024/01/01 02:53:44;;;;;;;7.20;1.07;;;7.40;99.90;;;;;;4188523;28;20171;-94
2024/01/01 02:55:46;;;;;;;3.63;0.70;;;7.40;99.90;;;;;;4172151;28;20203;-95
2024/01/01 02:57:49;;;;;;;1.15;0.70;;;7.40;99.90;;;;;;4188680;28;20195;-94
2024/01/01 02:59:56;;;;;;;2.55;0.50;;;7.40;99.90;;;;;;4188200;28;20194;-96
2024/01/01 03:01:57;;;;;;;6.13;1.53;;;7.40;99.90;;;;;;4188465;28;20167;-94
2024/01/01 03:04:13;;;;;;;0.97;0.37;;;7.40;99.90;;;;;;4170912;28;20167;-93
2024/01/01 03:06:41;;;;;;;10.67;2.17;;;7.30;99.90;;;;;;4187404;28;20706;-94
2024/01/01 03:09:21;;;;;;;7.13;0.83;;;7.30;99.90;;;;;;4189601;28;20175;-95
2024/01/01 03:11:22;;;;;;;13.95;2.03;;;7.20;99.90;;;;;;4174429;28;20202;-95
2024/01/01 03:13:26;;;;;;;2.17;0.70;;;7.20;99.90;;;;;;4171477;28;20172;-95
2024/01/01 03:15:32;;;;;;;8.60;0.90;;;7.30;99.90;;;;;;4190121;28;20286;-94
2024/01/01 03:17:33;;;;;;;9.73;1.23;;;7.20;99.90;;;;;;4190377;28;20171;-94
2024/01/01 03:19:34;;;;;;;8.00;1.10;;;7.30;99.90;;;;;;4176712;28;20172;-95
2024/01/01 03:21:35;;;;;;;13.03;1.30;;;7.30;99.90;;;;;;4192325;28;20167;-94
2024/01/01 03:23:41;;;;;;;9.53;0.50;;;7.20;99.90;;;;;;4173249;28;20155;-95
2024/01/01 03:25:45;;;;;;;3.50;0.67;;;7.20;99.90;;;;;;4170853;28;20164;-94
2024/01/01 03:28:02;;;;;;;2.83;0.53;;;7.20;99.90;;;;;;4174718;28;20192;-95
2024/01/01 03:30:10;;;;;;;4.60;0.50;;;7.10;99.90;;;;;;4190902;28;20163;-95
2024/01/01 03:32:19;;;;;;;7.17;0.90;;;7.20;99.90;;;;;;4191723;28;20167;-94
2024/01/01 03:34:23;;;;;;;15.40;0.93;;;7.20;99.90;;;;;;4189437;28;20587;-93
2024/01/01 03:36:27;;;;;;;3.77;0.30;;;7.30;99.90;;;;;;4202709;28;20290;-94
2024/01/01 03:38:28;;;;;;;8.67;1.07;;;7.20;99.90;;;;;;4187187;28;20172;-94
2024/01/01 03:40:30;;;;;;;0.70;0.40;;;7.20;99.90;;;;;;4173577;28;20203;-93
2024/01/01 03:42:31;;;;;;;4.17;0.63;;;7.10;99.90;;;;;;4174180;28;20172;-94
2024/01/01 03:44:32;;;;;;;0.20;0.20;;;7.10;99.90;;;;;;4174660;28;20175;-95
2024/01/01 03:46:38;;;;;;;1.50;0.57;;;7.10;99.90;;;;;;4171022;28;20283;-94
2024/01/01 03:48:41;;;;;;;0.33;0.30;;;7.10;99.90;;;;;;4175014;28;20230;-93
2024/01/01 03:50:45;;;;;;;0.37;0.33;;;7.10;99.90;;;;;;4189516;28;20171;-95
2024/01/01 03:53:07;;;;;;;0.97;0.40;;;7.00;99.90;;;;;;4174565;28;20263;-95
2024/01/01 03:55:08;;;;;;;0.40;0.10;;;7.00;99.90;;;;;;4171214;28;20207;-93
2024/01/01 03:57:09;;;;;;;11.63;0.80;;;7.00;99.90;;;;;;4188052;28;20215;-94
2024/01/01 03:59:13;;;;;;;16.30;2.60;;;7.00;99.90;;;;;;4186668;28;20180;-95
2024/01/01 04:01:14;;;;;;;0.93;0.67;;;6.90;99.90;;;;;;4172373;28;20246;-94
2024/01/01 04:03:17;;;;;;;7.20;1.03;;;6.90;99.90;;;;;;4174122;28;20248;-93
2024/01/01 04:05:18;;;;;;;5.20;0.57;;;7.00;99.90;;;;;;4189330;28;20640;-95
2024/01/01 04:07:19;;;;;;;2.23;0.43;;;7.00;99.90;;;;;;4173578;28;20267;-95
2024/01/01 04:09:25;;;;;;;6.90;1.03;;;7.10;99.90;;;;;;4172251;28;20263;-95
2024/01/01 04:11:29;;;;;;;2.27;1.47;;;7.10;99.90;;;;;;4189036;28;20185;-94
2024/01/01 04:13:34;;;;;;;0.57;0.30;;;7.10;99.90;;;;;;4184339;28;20188;-96
2024/01/01 04:15:38;;;;;;;4.43;0.50;;;7.00;99.90;;;;;;4188488;28;20207;-94
2024/01/01 04:17:39;;;;;;;2.90;0.47;;;7.10;99.90;;;;;;4187035;28;20178;-94
2024/01/01 04:19:44;;;;;;;0.10;0.10;;;7.20;99.90;;;;;;4171037;28;20180;-94
2024/01/01 04:21:48;;;;;;;0.73;0.33;;;7.10;99.90;;;;;;4186835;28;20185;-93
2024/01/01 04:23:58;;;;;;;17.33;1.17;;;7.10;99.90;;;;;;4188491;28;20183;-94
2024/01/01 04:26:01;;;;;;;2.20;0.60;;;7.00;99.90;;;;;;4187581;28;20362;-95
2024/01/01 04:28:05;;;;;;;1.13;0.10;;;7.00;99.90;;;;;;4171047;28;20199;-94
2024/01/01 04:30:18;;;;;;;1.07;0.50;;;7.00;99.90;;;;;;4186314;28;20257;-95
2024/01/01 04:32:20;;;;;;;20.37;2.50;;;7.00;99.90;;;;;;4185946;28;20271;-94
2024/01/01 04:34:21;;;;;;;0.10;0.10;;;7.00;99.90;;;;;;4183383;28;20687;-94
2024/01/01 04:36:24;;;;;;;5.17;1.47;;;7.00;99.90;;;;;;4171218;28;20200;-94
2024/01/01 04:38:25;;;;;;;0.87;0.20;;;7.00;99.90;;;;;;4188140;28;20171;-95
2024/01/01 04:40:26;;;;;;;4.03;1.17;;;7.00;99.90;;;;;;4169606;28;20179;-94
2024/01/01 04:42:30;;;;;;;7.60;1.43;;;7.00;99.90;;;;;;4190563;28;20183;-95
2024/01/01 04:44:34;;;;;;;3.10;0.45;;;7.00;99.90;;;;;;4170469;28;20188;-96
2024/01/01 04:46:36;;;;;;;5.67;0.50;;;7.00;99.90;;;;;;4186632;28;20195;-95
2024/01/01 04:48:38;;;;;;;2.20;0.20;;;7.00;99.90;;;;;;4171859;28;20179;-93
2024/01/01 04:50:42;;;;;;;6.13;0.97;;;7.00;99.90;;;;;;4171389;28;20215;-94
2024/01/01 04:52:43;;;;;;;2.63;0.68;;;7.00;99.90;;;;;;4177864;28;20605;-94
2024/01/01 04:55:17;;;;;;;4.45;0.60;;;7.00;99.90;;;;;;4193985;28;20210;-96
2024/01/01 04:57:18;;;;;;;4.43;0.30;;;7.00;99.90;;;;;;4182237;28;20230;-94
2024/01/01 04:59:21;;;;;;;0.63;0.27;;;6.90;99.90;;;;;;4171441;28;20153;-94
2024/01/01 05:01:22;;;;;;;1.77;0.60;;;6.90;99.90;;;;;;4187497;28;20206;-94
2024/01/01 05:03:23;;;;;;;4.00;1.10;;;6.90;99.90;;;;;;4170783;28;20164;-93
2024/01/01 05:05:24;;;;;;;2.43;0.77;;;6.90;99.90;;;;;;4171606;28;20191;-94
2024/01/01 05:07:28;;;;;;;0.37;0.03;;;7.00;99.90;;;;;;4170245;28;20191;-94
2024/01/01 05:09:34;;;;;;;2.73;0.30;;;7.00;99.90;;;;;;4191808;28;20155;-95
2024/01/01 05:11:48;;;;;;;0.83;0.10;;;6.90;99.90;;;;;;4174701;28;20723;-96
2024/01/01 05:14:02;;;;;;;2.23;0.47;;;7.00;99.90;;;;;;4176535;28;20168;-95
2024/01/01 05:16:08;;;;;;;5.23;0.77;;;6.90;99.90;;;;;;4189413;28;20193;-94
2024/01/01 05:18:15;;;;;;;6.27;0.60;;;6.90;99.90;;;;;;4169132;28;20227;-94
2024/01/01 05:20:19;;;;;;;19.93;1.17;;;7.00;99.90;;;;;;4173936;28;20171;-95
2024/01/01 05:22:30;;;;;;;2.80;1.98;;;7.00;99.90;;;;;;4189253;28;20278;-94
2024/01/01 05:24:56;;;;;;;5.23;0.90;;;7.10;99.90;;;;;;4188823;28;20167;-94
2024/01/01 05:27:00;;;;;;;2.70;0.70;;;7.00;99.90;;;;;;4183915;28;20213;-94
2024/01/01 05:29:09;;;;;;;5.80;0.70;;;7.10;99.90;;;;;;4188723;28;20325;-94
2024/01/01 05:31:30;;;;;;;2.63;0.40;;;7.00;99.90;;;;;;4171943;28;20227;-94
2024/01/01 05:33:35;;;;;;;1.93;0.40;;;7.00;99.90;;;;;;4194594;28;20210;-95
2024/01/01 05:35:42;;;;;;;2.28;0.32;;;7.10;99.90;;;;;;4170369;28;20235;-93
2024/01/01 05:37:43;;;;;;;5.37;0.27;;;7.00;99.90;;;;;;4189236;28;20271;-95
2024/01/01 05:39:44;;;;;;;5.47;1.03;;;7.00;99.90;;;;;;4188781;28;20606;-94
2024/01/01 05:41:45;;;;;;;4.40;1.57;;;6.90;99.90;;;;;;4186112;28;20164;-94
2024/01/01 05:43:49;;;;;;;3.47;0.60;;;6.90;99.90;;;;;;4171652;28;20177;-94
2024/01/01 05:46:11;;;;;;;2.63;0.93;;;6.80;99.90;;;;;;4188888;28;20606;-95
2024/01/01 05:48:12;;;;;;;2.73;0.70;;;6.80;99.90;;;;;;4192007;28;20220;-95
2024/01/01 05:50:21;;;;;;;1.57;0.57;;;6.80;99.90;;;;;;4189980;28;20219;-94
2024/01/01 05:52:27;;;;;;;1.70;0.63;;;6.80;99.90;;;;;;4177161;28;20172;-94
2024/01/01 05:54:31;;;;;;;2.67;0.57;;;6.80;99.90;;;;;;4174853;28;20210;-94
2024/01/01 05:56:56;;;;;;;1.73;0.20;;;6.90;99.90;;;;;;4174055;28;20628;-95
2024/01/01 05:59:08;;;;;;;0.30;0.30;;;6.90;99.90;;;;;;4185958;28;20222;-94
2024/01/01 06:01:11;;;;;;;2.20;0.57;;;6.90;99.90;;;;;;4188243;28;20155;-95
2024/01/01 06:03:12;;;;;;;1.70;0.27;;;6.90;99.90;;;;;;4190494;28;20156;-94
2024/01/01 06:05:19;;;;;;;6.37;0.60;;;7.00;99.90;;;;;;4188532;28;20586;-94
2024/01/01 06:07:29;;;;;;;3.83;1.33;;;7.00;99.90;;;;;;4185939;28;20192;-94
2024/01/01 06:09:34;;;;;;;5.27;0.20;;;6.90;99.90;;;;;;4184777;28;20191;-96
2024/01/01 06:12:13;;;;;;;4.03;0.73;;;6.90;99.90;;;;;;4187438;28;20228;-95
2024/01/01 06:14:23;;;;;;;1.30;0.33;;;6.90;99.90;;;;;;4184522;28;20234;-94
2024/01/01 06:16:47;;;;;;;0.80;0.30;;;6.90;99.90;;;;;;4183701;28;20194;-95
2024/01/01 06:19:06;;;;;;;;;;;;;;;;;;;;;
2024/01/01 06:21:27;;;;;;;1.53;0.50;;;6.90;99.90;;;;;;4184045;28;20616;-95
2024/01/01 06:23:28;;;;;;;4.23;0.50;;;6.90;99.90;;;;;;4184193;28;20179;-95
2024/01/01 06:26:01;;;;;;;2.63;0.70;;;6.90;99.90;;;;;;4183889;28;20176;-94
2024/01/01 06:28:48;;;;;;;0.40;0.23;;;7.00;99.90;;;;;;4185553;28;20715;-96
2024/01/01 06:31:06;;;;;;;1.50;0.20;;;7.10;99.90;;;;;;4185226;28;20620;-95
2024/01/01 06:33:31;;;;;;;1.13;0.50;;;7.20;99.90;;;;;;4182988;28;20676;-95
2024/01/01 06:35:49;;;;;;;6.07;0.30;;;7.10;99.90;;;;;;4186869;28;20198;-96
2024/01/01 06:37:54;;;;;;;6.77;0.30;;;7.10;99.90;;;;;;4185606;28;20183;-94
2024/01/01 06:39:58;;;;;;;11.40;0.40;;;7.00;99.90;;;;;;4189789;28;20175;-95
2024/01/01 06:42:24;;;;;;;0.63;0.10;;;7.00;99.90;;;;;;4204027;28;20328;-95
2024/01/01 06:44:33;;;;;;;2.63;1.27;;;6.90;99.90;;;;;;4172878;28;20157;-96
2024/01/01 06:47:02;;;;;;;0.93;0.27;;;7.00;99.90;;;;;;4170027;28;20293;-94
2024/01/01 06:49:15;;;;;;;2.53;1.50;;;7.00;99.90;;;;;;4187090;28;20214;-94
2024/01/01 06:51:41;;;;;;;0.57;0.38;;;7.00;99.90;;;;;;4186479;28;20529;-94
2024/01/01 06:54:04;;;;;;;;;;;;;;;;;;;;;
2024/01/01 06:56:34;;;;;;;1.43;0.70;;;7.00;99.90;;;;;;4189630;28;20261;-94
2024/01/01 06:58:48;;;;;;;5.53;1.10;;;7.00;99.90;;;;;;4186855;28;20180;-95
2024/01/01 07:00:52;;;;;;;1.60;0.80;;;7.00;99.90;;;;;;4177477;28;20180;-94
2024/01/01 07:02:58;;;;;;;2.30;0.73;;;7.10;99.90;;;;;;4173137;28;20318;-95
2024/01/01 07:05:07;;;;;;;2.83;0.30;;;7.10;99.90;;;;;;4188413;28;20175;-94
2024/01/01 07:07:11;;;;;;;4.67;1.83;;;7.10;99.90;;;;;;4186945;28;20179;-94
2024/01/01 07:09:28;;;;;;;0.60;0.30;;;7.10;99.90;;;;;;4173695;28;20176;-95
2024/01/01 07:11:32;;;;;;;1.42;0.40;;;7.10;99.90;;;;;;4169661;28;20624;-94
2024/01/01 07:13:35;;;;;;;3.03;1.13;;;7.10;99.90;;;;;;4171262;28;20160;-94
2024/01/01 07:16:00;;;;;;;9.27;1.10;;;7.00;99.90;;;;;;4168157;28;20565;-96
2024/01/01 07:18:07;;;;;;;2.67;0.47;;;7.10;99.90;;;;;;4169134;28;20173;-94
2024/01/01 07:20:14;;;;;;;0.93;0.43;;;7.00;99.90;;;;;;4169130;28;20177;-95
2024/01/01 07:22:46;;;;;;;1.50;0.50;;;7.00;99.90;;;;;;4186239;28;20163;-94
2024/01/01 07:25:09;;;;;;;1.80;0.90;;;7.00;99.90;;;;;;4185498;28;20190;-95
2024/01/01 07:27:13;;;;;;;2.33;0.67;;;7.20;99.90;;;;;;4172053;28;20318;-94
2024/01/01 07:29:22;;;;;;;11.70;1.07;;;7.20;99.90;;;;;;4185814;28;20214;-95
2024/01/01 07:31:23;;;;;;;3.77;0.80;;;7.20;99.90;;;;;;4169402;28;20144;-95
2024/01/01 07:33:24;;;;;;;9.67;0.47;;;7.10;99.90;;;;;;4188323;28;20159;-94
2024/01/01 07:35:43;;;;;;;3.43;0.30;;;7.10;99.90;;;;;;4171393;28;20242;-94
2024/01/01 07:37:51;;;;;;;1.77;0.57;;;7.00;99.90;;;;;;4169789;28;20198;-94
2024/01/01 07:40:01;;;;;;;5.10;0.80;;;7.10;99.90;;;;;;4187246;28;20163;-94
2024/01/01 07:42:03;;;;;;;7.23;0.67;;;7.10;99.90;;;;;;4185812;28;20171;-95
2024/01/01 07:44:04;;;;;;;1.80;0.67;;;7.10;99.90;;;;;;4187153;28;20168;-94
2024/01/01 07:46:10;;;;;;;3.13;0.83;;;7.10;99.90;;;;;;4186242;28;20198;-94
2024/01/01 07:48:11;;;;;;;12.73;0.53;;;7.00;99.90;;;;;;4186318;28;20175;-95
2024/01/01 07:50:14;;;;;;;6.03;0.40;;;7.20;99.90;;;;;;4168191;28;20176;-96
2024/01/01 07:52:15;;;;;;;7.20;0.97;;;7.10;99.90;;;;;;4170081;28;20172;-96
2024/01/01 07:54:18;;;;;;;3.57;0.90;;;7.10;99.90;;;;;;4168896;28;20270;-94
2024/01/01 07:56:22;;;;;;;6.43;0.93;;;7.00;99.90;;;;;;4170531;28;20247;-94
2024/01/01 07:59:07;;;;;;;7.83;0.50;;;7.00;99.90;;;;;;4172377;28;20192;-95
2024/01/01 08:01:11;;;;;;;7.00;0.47;;;7.00;99.90;;;;;;4187132;28;20340;-96
2024/01/01 08:03:14;;;;;;;4.13;0.73;;;7.10;99.90;;;;;;4186516;28;20194;-94
2024/01/01 08:05:17;;;;;;;0.30;0.20;;;7.10;99.90;;;;;;4168598;28;20188;-95
2024/01/01 08:07:21;;;;;;;1.50;0.40;;;7.10;99.90;;;;;;4184627;28;20195;-94
2024/01/01 08:09:28;;;;;;;4.00;0.53;;;7.00;99.90;;;;;;4183570;28;20190;-94
2024/01/01 08:11:33;;;;;;;0.50;0.20;;;7.00;99.90;;;;;;4171329;28;20180;-95
2024/01/01 08:13:57;;;;;;;0.03;0.00;;;7.00;99.90;;;;;;4198384;28;20210;-93
2024/01/01 08:16:12;;;;;;;3.50;0.40;;;7.10;99.90;;;;;;4186293;28;20231;-95
2024/01/01 08:18:13;;;;;;;4.43;1.10;;;7.10;99.90;;;;;;4167821;28;20164;-95
2024/01/01 08:20:14;;;;;;;1.33;0.70;;;7.10;99.90;;;;;;4168300;28;20256;-94
2024/01/01 08:22:20;;;;;;;2.80;0.80;;;7.20;99.90;;;;;;4184149;28;20178;-94
2024/01/01 08:24:35;;;;;;;5.30;0.93;;;7.20;99.90;;;;;;4187714;28;20635;-94
2024/01/01 08:26:36;;;;;;;6.40;2.40;;;7.20;99.90;;;;;;4171204;28;20175;-95
2024/01/01 08:28:37;;;;;;;4.03;1.47;;;7.20;99.90;;;;;;4184357;28;20238;-95
2024/01/01 08:30:59;;;;;;;4.27;1.00;;;7.20;99.90;;;;;;4185788;28;20151;-96
2024/01/01 08:33:03;;;;;;;5.33;0.70;;;7.20;99.90;;;;;;4170777;28;20192;-94
2024/01/01 08:35:07;;;;;;;4.57;1.25;;;7.30;99.90;;;;;;4168613;28;20208;-95
2024/01/01 08:37:17;;;;;;;3.20;0.68;;;7.40;99.90;;;;;;4168778;28;20176;-95
2024/01/01 08:39:27;;;;;;;3.80;1.17;;;7.40;99.90;;;;;;4182489;28;20222;-95
2024/01/01 08:41:33;;;;;;;6.15;2.15;;;7.50;99.90;;;;;;4185382;28;20175;-96
2024/01/01 08:43:37;;;;;;;6.20;0.98;;;7.50;99.90;;;;;;4168140;28;20169;-93
2024/01/01 08:45:49;;;;;;;7.72;0.93;;;7.50;99.90;;;;;;4183899;28;20670;-95
2024/01/01 08:48:30;;;;;;;4.55;0.82;;;7.50;99.90;;;;;;4167371;28;20160;-94
2024/01/01 08:50:44;;;;;;;6.43;0.60;;;7.60;99.90;;;;;;4175315;28;20179;-94
2024/01/01 08:52:52;;;;;;;4.53;0.75;;;7.60;99.90;;;;;;4184536;28;20210;-94
2024/01/01 08:55:20;;;;;;;12.53;1.03;;;7.60;99.90;;;;;;4169075;28;20195;-95
2024/01/01 08:57:21;;;;;;;1.03;0.40;;;7.50;99.90;;;;;;4185702;28;20218;-94
2024/01/01 08:59:25;;;;;;;7.47;0.53;;;7.50;99.90;;;;;;4184402;28;20191;-95
2024/01/01 09:01:29;;;;;;;5.05;0.85;;;7.60;99.90;;;;;;4183194;28;20282;-95
2024/01/01 09:03:39;;;;;;;;;;;;;;;;;;;;;
2024/01/01 09:05:43;;;;;;;2.20;0.28;;;7.70;99.90;;;;;;4185564;28;20167;-94
2024/01/01 09:07:44;;;;;;;5.97;0.43;;;7.70;99.90;;;;;;4184969;28;20176;-94
2024/01/01 09:09:48;;;;;;;1.17;0.50;;;7.80;99.90;;;;;;4169801;28;20160;-96
2024/01/01 09:11:54;;;;;;;2.70;0.70;;;7.80;99.90;;;;;;4198161;28;20163;-94
2024/01/01 09:13:58;;;;;;;9.73;1.23;;;7.70;99.90;;;;;;4177559;28;20199;-95
2024/01/01 09:16:02;;;;;;;2.63;1.03;;;7.70;99.90;;;;;;4177163;28;20188;-95
2024/01/01 09:18:56;;;;;;;5.93;0.43;;;7.80;99.90;;;;;;4174275;28;20186;-95
2024/01/01 09:21:13;;;;;;;10.63;1.30;;;8.00;99.90;;;;;;4185790;28;20187;-92
2024/01/01 09:24:01;;;;;;;;;;;;;;;;;;;;;
2024/01/01 09:26:58;;;;;;;4.22;0.93;;;7.90;99.90;;;;;;4193605;28;20195;-96
2024/01/01 09:29:02;;;;;;;10.15;0.90;;;7.90;99.90;;;;;;4190719;28;20183;-96
2024/01/01 09:31:21;;;;;;;1.65;0.32;;;7.80;99.90;;;;;;4191930;28;20195;-95
2024/01/01 09:34:06;;;;;;;;;;;;;;;;;;;;;
2024/01/01 09:36:13;;;;;;;2.65;0.93;;;7.90;99.90;;;;;;4194272;28;20274;-95
2024/01/01 09:38:36;;;;;;;3.47;0.47;;;7.90;99.90;;;;;;4193912;28;20760;-95
2024/01/01 09:40:40;;;;;;;8.52;1.60;;;7.90;99.90;;;;;;4192589;28;20245;-96
2024/01/01 09:43:22;;;;;;;2.00;0.57;;;7.80;99.90;;;;;;4178412;28;20160;-96
2024/01/01 09:45:49;;;;;;;5.50;0.47;;;7.90;99.90;;;;;;4191559;28;20155;-95
2024/01/01 09:47:54;;;;;;;6.10;1.45;;;7.90;99.90;;;;;;4473593;22;20208;-95
2024/01/01 09:50:10;;;;;;;4.80;1.08;;;8.00;99.90;;;;;;4161264;28;20174;-95
2024/01/01 09:52:17;;;;;;;12.20;0.63;;;7.90;99.90;;;;;;4176180;28;20152;-95
2024/01/01 09:54:22;;;;;;;6.80;1.80;;;8.00;99.90;;;;;;4175411;28;20199;-95
2024/01/01 09:56:55;;;;;;;5.45;1.67;;;8.20;99.90;;;;;;4167225;28;20193;-95
2024/01/01 09:59:38;;;;;;;8.38;0.77;;;8.20;99.90;;;;;;4140532;28;20170;-94
2024/01/01 10:02:12;;;;;;;9.10;0.77;;;8.20;99.90;;;;;;4161959;28;20165;-95
2024/01/01 10:04:48;;;;;;;;;;;;;;;;;;;;;
2024/01/01 10:07:37;;;;;;;11.30;0.55;;;8.20;99.90;;;;;;4161834;28;20199;-95
2024/01/01 10:09:53;;;;;;;2.58;0.63;;;8.20;99.90;;;;;;4159787;28;20173;-95
2024/01/01 10:12:09;;;;;;;5.43;1.35;;;8.30;99.90;;;;;;4145293;28;20185;-95
2024/01/01 10:14:26;;;;;;;14.48;2.13;;;8.40;99.90;;;;;;4132787;28;20162;-95
2024/01/01 10:16:38;;;;;;;4.13;1.10;;;8.60;99.90;;;;;;4146000;28;20202;-95
2024/01/01 10:18:58;;;;;;;7.30;0.80;;;8.70;99.90;;;;;;4163066;28;20204;-95
2024/01/01 10:21:14;;;;;;;2.70;0.85;;;8.80;99.90;;;;;;4143474;28;20558;-96
2024/01/01 10:23:49;;;;;;;9.45;1.45;;;8.90;99.90;;;;;;4147370;28;20208;-94
2024/01/01 10:26:26;;;;;;;5.85;1.45;;;8.90;99.90;;;;;;4145408;28;20189;-94
2024/01/01 10:28:41;;;;;;;7.18;1.23;;;8.90;99.90;;;;;;4148026;28;20177;-95
2024/01/01 10:31:06;;;;;;;4.85;1.40;;;8.90;99.90;;;;;;4160762;28;20239;-94
2024/01/01 10:33:34;;;;;;;8.30;0.93;;;9.00;99.90;;;;;;4148269;28;20185;-95
2024/01/01 10:35:46;;;;;;;16.23;1.38;;;8.90;99.90;;;;;;4145251;28;20634;-94
2024/01/01 10:38:01;;;;;;;;;;;;;;;;;;;;;
2024/01/01 10:40:26;;;;;;;3.60;0.90;;;9.10;99.90;;;;;;4158382;28;20168;-95
2024/01/01 10:42:35;;;;;;;4.18;0.80;;;9.10;99.90;;;;;;4163182;28;20233;-96
2024/01/01 10:45:25;;;;;;;7.28;0.90;;;9.20;99.90;;;;;;4163860;28;20185;-95
2024/01/01 10:47:57;;;;;;;6.55;1.17;;;9.20;99.90;;;;;;4161141;28;20235;-96
2024/01/01 10:50:39;;;;;;;8.65;1.73;;;9.30;99.90;;;;;;4145237;28;20635;-94
2024/01/01 11:21:07;;;;;;;;;;;;;;;;;;;;;
2024/01/01 11:23:44;;;;;;;5.28;1.05;;;9.00;99.90;;;;;;4172766;28;20211;-93
2024/01/01 11:26:36;;;;;;;4.13;1.65;;;8.70;99.90;;;;;;4165260;28;20617;-93
2024/01/01 11:33:06;;;;;;;;;;;;;;;;;;;;;
2024/01/01 11:36:41;;;;;;;2.55;1.65;;;8.50;99.90;;;;;;4109491;28;20222;-95
2024/01/01 11:39:58;;;;;;;;;;;;;;;;;;;;;
2024/01/01 11:42:59;;;;;;;12.23;1.35;;;8.70;99.90;;;;;;4111090;28;20206;-94
2024/01/01 11:49:01;;;;;;;8.25;1.42;;;8.60;99.90;;;;;;4664210;22;20290;-94
2024/01/01 11:52:12;;;;;;;4.68;1.10;;;8.50;99.90;;;;;;4148996;28;20684;-94
2024/01/01 11:54:39;;;;;;;11.90;0.57;;;8.50;99.90;;;;;;4143943;22;20235;-91
2024/01/01 11:56:40;;;;;;;12.25;1.52;;;8.50;99.90;;;;;;4148750;28;20192;-94
2024/01/01 11:58:41;;;;;;;6.57;0.93;;;8.60;99.90;;;;;;4149658;28;20208;-94
2024/01/01 12:00:42;;;;;;;2.80;0.70;;;8.60;99.90;;;;;;4149828;28;20176;-93
2024/01/01 12:02:43;;;;;;;5.10;1.17;;;8.70;99.90;;;;;;4150584;28;20183;-90
2024/01/01 12:04:51;;;;;;;4.57;0.60;;;8.60;99.90;;;;;;4151420;28;20165;-91
2024/01/01 12:06:52;;;;;;;6.35;1.17;;;8.80;99.90;;;;;;4167243;28;20200;-90
2024/01/01 12:09:20;;;;;;;6.95;0.88;;;8.70;99.90;;;;;;4166592;28;20246;-91
2024/01/01 12:11:22;;;;;;;4.03;0.45;;;8.70;99.90;;;;;;4149658;28;20199;-90
2024/01/01 12:13:23;;;;;;;4.80;0.82;;;8.60;99.90;;;;;;4150636;28;20165;-91
2024/01/01 12:15:30;;;;;;;6.00;1.15;;;8.80;99.90;;;;;;4150245;28;20311;-93
2024/01/01 12:17:31;;;;;;;7.85;1.15;;;8.80;99.90;;;;;;4166373;28;20195;-90
2024/01/01 12:19:32;;;;;;;4.47;0.90;;;8.80;99.90;;;;;;4166222;28;20656;-95
2024/01/01 12:21:40;;;;;;;1.70;0.68;;;8.80;99.90;;;;;;4166370;28;20168;-94
2024/01/01 12:23:41;;;;;;;2.80;0.77;;;8.70;99.90;;;;;;4166951;28;20175;-92